Time;durP1;ratioP1;P1;durP2;ratioP2;P2;SDS_P1;SDS_P2;PMS_P1;PMS_P2;Temp;Humidity;BMP_temperature;BMP_pressure;BME280_temperature;BME280_humidity;BME280_pressure;Samples;Min_cycle;Max_cycle;Signal;HPM_P1;HPM_P2
2021/06/16 00:00:13;;;;;;;8.27;4.78;;;;;;;;;;5015359;28;20032;-71
2021/06/16 00:02:39;;;;;;;9.65;5.22;;;;;;;;;;5015525;28;20054;-71
2021/06/16 00:05:05;;;;;;;9.73;5.10;;;;;;;;;;4997775;28;20025;-70
2021/06/16 00:07:31;;;;;;;9.65;4.60;;;;;;;;;;5015516;28;20079;-68
2021/06/16 00:09:56;;;;;;;10.77;5.22;;;;;;;;;;5015337;28;20428;-68
2021/06/16 00:12:24;;;;;;;8.63;5.20;;;;;;;;;;5015179;28;20025;-71
2021/06/16 00:14:50;;;;;;;11.80;5.38;;;;;;;;;;4998099;28;20145;-71
2021/06/16 00:17:15;;;;;;;8.80;5.32;;;;;;;;;;5022182;28;20051;-68
2021/06/16 00:19:41;;;;;;;8.40;5.72;;;;;;;;;;5024765;28;20437;-69
2021/06/16 00:22:07;;;;;;;8.07;5.70;;;;;;;;;;5026277;28;20014;-70
2021/06/16 00:24:32;;;;;;;7.50;4.88;;;;;;;;;;5026808;28;20050;-68
2021/06/16 00:26:58;;;;;;;14.55;5.65;;;;;;;;;;5019104;28;20485;-71
2021/06/16 00:29:24;;;;;;;10.45;5.45;;;;;;;;;;5014948;28;20018;-71
2021/06/16 00:31:49;;;;;;;8.00;5.60;;;;;;;;;;5015000;28;20099;-68
2021/06/16 00:34:15;;;;;;;8.95;5.07;;;;;;;;;;5014791;28;20052;-68
2021/06/16 00:36:42;;;;;;;6.88;4.95;;;;;;;;;;4981199;28;20413;-70
2021/06/16 00:39:08;;;;;;;10.82;5.88;;;;;;;;;;4997136;28;20026;-69
2021/06/16 00:41:34;;;;;;;8.43;5.22;;;;;;;;;;5019215;28;20036;-68
2021/06/16 00:43:59;;;;;;;7.45;5.38;;;;;;;;;;5014619;28;20020;-71
2021/06/16 00:46:25;;;;;;;11.20;5.65;;;;;;;;;;5014916;28;20421;-70
2021/06/16 00:48:50;;;;;;;12.80;5.30;;;;;;;;;;5014855;28;20014;-70
2021/06/16 00:51:16;;;;;;;10.27;6.13;;;;;;;;;;4997122;28;20076;-70
2021/06/16 00:53:42;;;;;;;9.55;5.22;;;;;;;;;;5014534;28;20050;-68
2021/06/16 00:56:07;;;;;;;10.90;5.22;;;;;;;;;;5014459;28;20097;-69
2021/06/16 00:58:33;;;;;;;10.32;6.07;;;;;;;;;;4996930;28;20434;-69
2021/06/16 01:01:02;;;;;;;7.05;4.75;;;;;;;;;;5014522;28;20056;-69
2021/06/16 01:03:29;;;;;;;9.32;6.13;;;;;;;;;;5014165;28;20399;-71
2021/06/16 01:05:59;;;;;;;10.23;5.07;;;;;;;;;;5014271;28;20029;-70
2021/06/16 01:08:29;;;;;;;7.63;4.97;;;;;;;;;;5014315;28;20156;-69
2021/06/16 01:10:57;;;;;;;11.57;5.95;;;;;;;;;;5014334;28;20057;-69
2021/06/16 01:13:28;;;;;;;9.13;5.30;;;;;;;;;;5014415;28;20018;-69
2021/06/16 01:16:02;;;;;;;19.95;5.88;;;;;;;;;;4996635;28;20022;-69
2021/06/16 01:18:30;;;;;;;8.50;5.60;;;;;;;;;;5014066;28;20561;-69
2021/06/16 01:20:56;;;;;;;7.20;5.25;;;;;;;;;;5014087;28;20385;-70
2021/06/16 01:23:40;;;;;;;8.18;5.28;;;;;;;;;;4995825;28;20029;-69
2021/06/16 01:26:24;;;;;;;8.27;5.63;;;;;;;;;;5013946;28;20041;-69
2021/06/16 01:28:51;;;;;;;6.15;4.43;;;;;;;;;;5013971;28;20021;-70
2021/06/16 01:31:19;;;;;;;10.50;5.43;;;;;;;;;;4996141;28;20017;-69
2021/06/16 01:33:45;;;;;;;6.85;5.00;;;;;;;;;;5014001;28;20046;-70
2021/06/16 01:36:11;;;;;;;10.70;5.13;;;;;;;;;;5013888;28;20021;-71
2021/06/16 01:38:37;;;;;;;7.45;4.95;;;;;;;;;;4996154;28;20494;-69
2021/06/16 01:41:03;;;;;;;10.15;4.80;;;;;;;;;;5013703;28;20109;-70
2021/06/16 01:43:30;;;;;;;9.10;5.40;;;;;;;;;;5013691;28;20022;-69
2021/06/16 01:45:57;;;;;;;11.98;5.30;;;;;;;;;;4996056;28;20022;-71
2021/06/16 01:48:23;;;;;;;8.32;4.25;;;;;;;;;;5013634;28;20097;-70
2021/06/16 01:50:50;;;;;;;8.23;4.82;;;;;;;;;;4996022;28;20117;-70
2021/06/16 01:53:18;;;;;;;8.88;5.18;;;;;;;;;;5013475;28;20528;-68
2021/06/16 01:55:43;;;;;;;6.28;4.63;;;;;;;;;;5013568;28;20025;-68
2021/06/16 01:58:09;;;;;;;10.25;5.60;;;;;;;;;;5013444;28;20029;-70
2021/06/16 02:00:35;;;;;;;7.70;4.80;;;;;;;;;;5013586;28;20026;-68
2021/06/16 02:03:01;;;;;;;7.68;5.28;;;;;;;;;;4995648;28;20402;-70
2021/06/16 02:05:29;;;;;;;7.85;6.05;;;;;;;;;;4995790;28;20022;-70
2021/06/16 02:08:04;;;;;;;8.63;4.63;;;;;;;;;;5013382;28;20026;-68
2021/06/16 02:10:32;;;;;;;11.38;5.63;;;;;;;;;;4995967;28;20030;-69
2021/06/16 02:12:58;;;;;;;8.18;4.75;;;;;;;;;;5013375;28;20109;-70
2021/06/16 02:15:28;;;;;;;6.90;5.05;;;;;;;;;;4995750;28;20010;-68
2021/06/16 02:17:57;;;;;;;10.18;5.07;;;;;;;;;;5013247;28;20033;-70
2021/06/16 02:20:23;;;;;;;8.50;4.75;;;;;;;;;;5013309;28;20034;-70
2021/06/16 02:22:49;;;;;;;9.55;5.20;;;;;;;;;;5013327;28;20026;-71
2021/06/16 02:25:15;;;;;;;9.20;4.82;;;;;;;;;;5013041;28;20137;-69
2021/06/16 02:27:41;;;;;;;6.75;4.78;;;;;;;;;;5013354;28;20026;-69
2021/06/16 02:30:07;;;;;;;10.57;5.25;;;;;;;;;;5013126;28;20112;-70
2021/06/16 02:32:33;;;;;;;9.95;4.95;;;;;;;;;;4995604;28;20022;-70
2021/06/16 02:34:59;;;;;;;11.80;5.70;;;;;;;;;;5016175;28;20033;-70
2021/06/16 02:37:25;;;;;;;9.05;5.00;;;;;;;;;;5017172;28;20493;-71
2021/06/16 02:39:58;;;;;;;11.38;5.35;;;;;;;;;;5017228;28;20080;-68
2021/06/16 02:42:24;;;;;;;7.28;4.95;;;;;;;;;;5017184;28;20026;-69
2021/06/16 02:44:51;;;;;;;6.63;4.55;;;;;;;;;;5017046;28;20112;-70
2021/06/16 02:47:17;;;;;;;6.63;4.38;;;;;;;;;;5016876;28;20434;-70
2021/06/16 02:49:45;;;;;;;8.65;4.63;;;;;;;;;;4999296;28;20022;-70
2021/06/16 02:52:12;;;;;;;13.23;4.63;;;;;;;;;;5016805;28;20026;-71
2021/06/16 02:54:38;;;;;;;6.25;4.68;;;;;;;;;;4999458;28;20026;-70
2021/06/16 02:57:05;;;;;;;8.32;5.10;;;;;;;;;;5020872;28;20108;-71
2021/06/16 02:59:31;;;;;;;9.50;4.70;;;;;;;;;;5016964;28;20426;-70
2021/06/16 03:01:56;;;;;;;9.57;4.53;;;;;;;;;;5016599;28;20072;-69
2021/06/16 03:04:23;;;;;;;8.02;5.45;;;;;;;;;;5016472;28;20054;-71
2021/06/16 03:06:50;;;;;;;7.82;3.95;;;;;;;;;;5016688;28;20032;-71
2021/06/16 03:09:17;;;;;;;6.05;4.57;;;;;;;;;;5016439;28;20036;-69
2021/06/16 03:11:44;;;;;;;5.95;4.30;;;;;;;;;;5016496;28;20017;-69
2021/06/16 03:14:09;;;;;;;7.25;4.93;;;;;;;;;;5016386;28;20505;-69
2021/06/16 03:16:35;;;;;;;7.97;4.82;;;;;;;;;;4998968;28;20026;-70
2021/06/16 03:19:01;;;;;;;9.27;5.43;;;;;;;;;;5016409;28;20022;-71
2021/06/16 03:21:26;;;;;;;9.57;4.80;;;;;;;;;;4998535;28;20115;-70
2021/06/16 03:23:52;;;;;;;12.70;5.03;;;;;;;;;;5016444;28;20113;-68
2021/06/16 03:26:18;;;;;;;8.45;4.35;;;;;;;;;;5016134;28;20016;-70
2021/06/16 03:28:44;;;;;;;7.70;4.40;;;;;;;;;;5017203;28;20021;-70
2021/06/16 03:31:11;;;;;;;12.02;5.68;;;;;;;;;;5016072;28;20021;-72
2021/06/16 03:33:37;;;;;;;11.10;5.15;;;;;;;;;;5016205;28;20025;-71
2021/06/16 03:36:02;;;;;;;5.72;4.22;;;;;;;;;;5016150;28;20504;-70
2021/06/16 03:38:30;;;;;;;6.70;4.13;;;;;;;;;;5016236;28;20029;-69
2021/06/16 03:40:56;;;;;;;7.88;4.43;;;;;;;;;;5015966;28;20560;-70
2021/06/16 03:43:22;;;;;;;5.75;4.28;;;;;;;;;;5016082;28;20022;-70
2021/06/16 03:45:47;;;;;;;8.77;4.05;;;;;;;;;;5015133;28;20079;-71
2021/06/16 03:48:15;;;;;;;7.28;4.25;;;;;;;;;;5015746;28;20108;-70
2021/06/16 03:50:41;;;;;;;8.25;3.60;;;;;;;;;;5015920;28;20071;-70
2021/06/16 03:53:11;;;;;;;5.97;3.25;;;;;;;;;;5023063;28;20029;-70
2021/06/16 03:55:40;;;;;;;6.57;3.10;;;;;;;;;;5025273;28;20394;-70
2021/06/16 03:58:06;;;;;;;5.82;3.25;;;;;;;;;;5026109;28;20394;-71
2021/06/16 04:00:31;;;;;;;3.97;3.05;;;;;;;;;;5025526;28;20028;-70
2021/06/16 04:02:57;;;;;;;6.88;2.80;;;;;;;;;;4999813;28;20434;-69
2021/06/16 04:05:22;;;;;;;4.80;2.60;;;;;;;;;;4997909;28;20034;-70
2021/06/16 04:07:50;;;;;;;3.72;3.10;;;;;;;;;;5015682;28;20030;-69
2021/06/16 04:10:17;;;;;;;5.10;2.60;;;;;;;;;;5015349;28;20017;-70
2021/06/16 04:12:44;;;;;;;5.88;2.78;;;;;;;;;;5015591;28;20363;-72
2021/06/16 04:15:10;;;;;;;3.22;2.50;;;;;;;;;;5015288;28;20029;-70
2021/06/16 04:17:35;;;;;;;6.10;2.60;;;;;;;;;;5015249;28;20075;-72
2021/06/16 04:20:01;;;;;;;4.28;2.40;;;;;;;;;;5015197;28;20018;-72
2021/06/16 04:22:26;;;;;;;4.75;2.30;;;;;;;;;;4997649;28;20494;-70
2021/06/16 04:24:52;;;;;;;3.75;2.67;;;;;;;;;;5015201;28;20033;-71
2021/06/16 04:27:17;;;;;;;5.63;2.15;;;;;;;;;;5015048;28;20021;-69
2021/06/16 04:29:43;;;;;;;5.22;2.20;;;;;;;;;;5015339;28;20502;-71
2021/06/16 04:32:11;;;;;;;6.15;2.20;;;;;;;;;;5014939;28;20013;-68
2021/06/16 04:34:38;;;;;;;2.75;2.20;;;;;;;;;;5015212;28;20398;-71
2021/06/16 04:37:04;;;;;;;4.72;2.50;;;;;;;;;;5014942;28;20085;-69
2021/06/16 04:39:29;;;;;;;3.88;2.03;;;;;;;;;;5014941;28;20021;-71
2021/06/16 04:41:55;;;;;;;5.38;2.13;;;;;;;;;;5014844;28;20037;-71
2021/06/16 04:44:20;;;;;;;8.55;2.38;;;;;;;;;;5014877;28;20064;-72
2021/06/16 04:46:48;;;;;;;4.78;2.15;;;;;;;;;;5014769;28;20030;-72
2021/06/16 04:49:13;;;;;;;3.90;1.80;;;;;;;;;;5014603;28;20014;-71
2021/06/16 04:51:39;;;;;;;3.45;2.20;;;;;;;;;;5014788;28;20105;-71
2021/06/16 04:54:10;;;;;;;4.13;2.00;;;;;;;;;;5014601;28;20140;-73
2021/06/16 04:56:35;;;;;;;2.85;1.92;;;;;;;;;;5014411;28;20482;-71
2021/06/16 04:59:01;;;;;;;2.22;1.70;;;;;;;;;;5013823;28;20107;-73
2021/06/16 05:01:26;;;;;;;3.40;2.15;;;;;;;;;;5014540;28;20414;-69
2021/06/16 05:03:52;;;;;;;3.95;1.75;;;;;;;;;;4993539;28;20140;-71
2021/06/16 05:06:17;;;;;;;6.25;2.38;;;;;;;;;;4994754;28;20407;-70
2021/06/16 05:08:42;;;;;;;5.55;2.28;;;;;;;;;;4994937;28;20019;-73
2021/06/16 05:11:08;;;;;;;4.05;2.10;;;;;;;;;;4998371;28;20023;-70
2021/06/16 05:13:33;;;;;;;3.03;1.98;;;;;;;;;;4995118;28;20029;-70
2021/06/16 05:15:59;;;;;;;5.95;2.00;;;;;;;;;;4994644;28;20474;-70
2021/06/16 05:18:26;;;;;;;4.97;1.90;;;;;;;;;;4994611;28;20080;-71
2021/06/16 05:20:52;;;;;;;2.10;1.85;;;;;;;;;;4994625;28;20022;-71
2021/06/16 05:23:17;;;;;;;4.63;1.95;;;;;;;;;;4993227;28;20018;-72
2021/06/16 05:25:43;;;;;;;10.82;2.00;;;;;;;;;;4994587;28;20022;-70
2021/06/16 05:28:09;;;;;;;5.32;2.28;;;;;;;;;;4994195;28;20019;-72
2021/06/16 05:30:36;;;;;;;4.80;2.05;;;;;;;;;;4994403;28;20053;-71
2021/06/16 05:33:02;;;;;;;5.53;1.90;;;;;;;;;;4994367;28;20390;-72
2021/06/16 05:35:28;;;;;;;6.30;2.30;;;;;;;;;;4992982;28;20048;-70
2021/06/16 05:37:53;;;;;;;3.22;2.00;;;;;;;;;;4994177;28;20036;-72
2021/06/16 05:40:19;;;;;;;5.05;2.50;;;;;;;;;;4993017;28;20101;-71
2021/06/16 05:42:44;;;;;;;6.65;2.17;;;;;;;;;;4994101;28;20105;-71
2021/06/16 05:45:11;;;;;;;6.05;2.20;;;;;;;;;;4994037;28;20022;-72
2021/06/16 05:47:37;;;;;;;5.45;2.20;;;;;;;;;;4994131;28;20032;-71
2021/06/16 05:50:03;;;;;;;6.90;2.13;;;;;;;;;;5001087;28;20044;-68
2021/06/16 05:52:28;;;;;;;3.20;2.03;;;;;;;;;;5027999;28;20033;-70
2021/06/16 05:54:54;;;;;;;3.67;2.28;;;;;;;;;;5020528;28;20013;-69
2021/06/16 05:57:19;;;;;;;3.00;2.20;;;;;;;;;;5028896;28;20005;-70
2021/06/16 05:59:44;;;;;;;6.50;1.90;;;;;;;;;;5020577;28;20479;-70
2021/06/16 06:02:10;;;;;;;5.85;2.28;;;;;;;;;;5028782;28;20108;-71
2021/06/16 06:04:35;;;;;;;5.72;2.25;;;;;;;;;;5031284;28;20045;-72
2021/06/16 06:07:02;;;;;;;4.70;1.67;;;;;;;;;;5042872;28;20009;-70
2021/06/16 06:09:28;;;;;;;5.30;2.25;;;;;;;;;;5024605;28;20375;-69
2021/06/16 06:11:53;;;;;;;6.50;2.47;;;;;;;;;;5028560;28;20014;-70
2021/06/16 06:14:19;;;;;;;6.63;2.40;;;;;;;;;;5024190;28;20014;-71
2021/06/16 06:16:44;;;;;;;5.28;1.98;;;;;;;;;;5004344;28;20021;-69
2021/06/16 06:19:10;;;;;;;4.78;2.20;;;;;;;;;;5029729;28;20512;-70
2021/06/16 06:21:35;;;;;;;3.67;1.80;;;;;;;;;;5026321;28;20025;-70
2021/06/16 06:24:02;;;;;;;6.15;2.08;;;;;;;;;;5008523;28;20018;-71
2021/06/16 06:26:28;;;;;;;7.95;2.35;;;;;;;;;;5012353;28;20056;-69
2021/06/16 06:28:53;;;;;;;3.72;2.40;;;;;;;;;;5021871;28;20060;-70
2021/06/16 06:31:19;;;;;;;4.63;2.35;;;;;;;;;;5040954;28;20492;-73
2021/06/16 06:33:44;;;;;;;5.50;2.55;;;;;;;;;;5021797;28;20048;-69
2021/06/16 06:36:10;;;;;;;3.08;2.00;;;;;;;;;;5029052;28;20017;-69
2021/06/16 06:38:35;;;;;;;3.85;2.40;;;;;;;;;;5014161;28;20021;-68
2021/06/16 06:41:01;;;;;;;6.95;2.30;;;;;;;;;;5039454;28;20063;-71
2021/06/16 06:43:27;;;;;;;25.13;4.28;;;;;;;;;;5041764;28;20098;-69
2021/06/16 06:45:52;;;;;;;3.17;1.98;;;;;;;;;;5033145;28;20031;-70
2021/06/16 06:48:18;;;;;;;4.25;2.30;;;;;;;;;;5038143;28;20026;-70
2021/06/16 06:50:44;;;;;;;5.75;1.80;;;;;;;;;;5012974;28;20021;-72
2021/06/16 06:53:09;;;;;;;11.63;2.47;;;;;;;;;;5038423;28;20117;-67
2021/06/16 06:55:35;;;;;;;6.40;2.33;;;;;;;;;;5016665;28;20107;-69
2021/06/16 06:58:00;;;;;;;13.07;2.38;;;;;;;;;;5035670;28;20033;-70
2021/06/16 07:00:26;;;;;;;17.58;2.40;;;;;;;;;;5033634;28;20065;-71
2021/06/16 07:02:51;;;;;;;3.03;2.17;;;;;;;;;;5040948;28;20059;-71
2021/06/16 07:05:17;;;;;;;4.45;1.80;;;;;;;;;;5024253;28;20488;-71
2021/06/16 07:07:42;;;;;;;4.53;1.55;;;;;;;;;;5040395;28;20597;-72
2021/06/16 07:10:08;;;;;;;3.03;1.70;;;;;;;;;;5023243;28;20017;-69
2021/06/16 07:12:34;;;;;;;5.82;1.70;;;;;;;;;;5039788;28;20018;-69
2021/06/16 07:14:59;;;;;;;4.57;1.77;;;;;;;;;;5041457;28;20366;-71
2021/06/16 07:17:25;;;;;;;4.07;2.10;;;;;;;;;;5043279;28;20009;-72
2021/06/16 07:19:50;;;;;;;8.07;1.92;;;;;;;;;;5029708;28;20009;-70
2021/06/16 07:22:16;;;;;;;3.17;1.60;;;;;;;;;;5033094;28;20021;-71
2021/06/16 07:24:41;;;;;;;8.73;2.35;;;;;;;;;;5047405;28;20461;-72
2021/06/16 07:27:07;;;;;;;7.10;1.70;;;;;;;;;;5055257;28;20024;-69
2021/06/16 07:29:32;;;;;;;3.13;1.70;;;;;;;;;;5044057;28;20026;-72
2021/06/16 07:31:58;;;;;;;4.95;2.03;;;;;;;;;;5049559;28;20032;-71
2021/06/16 07:34:23;;;;;;;3.70;2.10;;;;;;;;;;5039937;28;20385;-70
2021/06/16 07:36:49;;;;;;;4.47;1.85;;;;;;;;;;5027977;28;20020;-69
2021/06/16 07:39:14;;;;;;;4.28;1.67;;;;;;;;;;5044134;28;20063;-72
2021/06/16 07:41:40;;;;;;;4.07;1.85;;;;;;;;;;5044024;28;20028;-68
2021/06/16 07:44:05;;;;;;;2.88;2.08;;;;;;;;;;5032397;28;20024;-70
2021/06/16 07:46:31;;;;;;;4.10;1.80;;;;;;;;;;5050354;28;20104;-72
2021/06/16 07:48:56;;;;;;;2.15;1.52;;;;;;;;;;5062191;28;20025;-68
2021/06/16 07:51:22;;;;;;;1.98;1.50;;;;;;;;;;5036802;28;20138;-69
2021/06/16 07:53:47;;;;;;;5.38;2.05;;;;;;;;;;5066099;28;20017;-69
2021/06/16 07:56:13;;;;;;;3.53;1.80;;;;;;;;;;5051110;28;20022;-69
2021/06/16 07:58:38;;;;;;;4.45;1.63;;;;;;;;;;5052240;28;20088;-71
2021/06/16 08:01:04;;;;;;;3.78;2.05;;;;;;;;;;5024026;28;20012;-68
2021/06/16 08:03:29;;;;;;;7.25;1.92;;;;;;;;;;5057197;28;20052;-69
2021/06/16 08:05:55;;;;;;;101.32;8.30;;;;;;;;;;5039167;28;20028;-68
2021/06/16 08:08:20;;;;;;;4.03;2.25;;;;;;;;;;5032063;28;20017;-72
2021/06/16 08:10:46;;;;;;;8.15;1.60;;;;;;;;;;5033010;28;20185;-69
2021/06/16 08:13:11;;;;;;;6.75;2.05;;;;;;;;;;5021054;28;20029;-70
2021/06/16 08:15:37;;;;;;;3.25;1.73;;;;;;;;;;5046277;28;20082;-70
2021/06/16 08:18:03;;;;;;;4.65;1.70;;;;;;;;;;5018848;28;20034;-72
2021/06/16 08:20:28;;;;;;;52.45;3.95;;;;;;;;;;5032175;28;20021;-70
2021/06/16 08:22:54;;;;;;;3.17;1.40;;;;;;;;;;5022196;28;20116;-71
2021/06/16 08:25:19;;;;;;;3.30;1.98;;;;;;;;;;5042516;28;20030;-71
2021/06/16 08:27:45;;;;;;;1.75;1.58;;;;;;;;;;5047134;28;20045;-73
2021/06/16 08:30:11;;;;;;;1.90;1.40;;;;;;;;;;5018744;28;20017;-71
2021/06/16 08:32:36;;;;;;;2.35;1.52;;;;;;;;;;5048438;28;20013;-71
2021/06/16 08:35:02;;;;;;;3.72;1.60;;;;;;;;;;5037255;28;20039;-68
2021/06/16 08:37:28;;;;;;;5.25;1.63;;;;;;;;;;5046113;28;20041;-72
2021/06/16 08:39:53;;;;;;;2.92;1.40;;;;;;;;;;5050324;28;20059;-71
2021/06/16 08:42:19;;;;;;;3.10;1.40;;;;;;;;;;5042046;28;20024;-68
2021/06/16 08:44:44;;;;;;;4.10;1.65;;;;;;;;;;5025760;28;20029;-70
2021/06/16 08:47:09;;;;;;;2.97;1.52;;;;;;;;;;5015003;28;20386;-70
2021/06/16 08:49:35;;;;;;;6.00;1.95;;;;;;;;;;5026902;28;20060;-69
2021/06/16 08:52:00;;;;;;;3.35;1.67;;;;;;;;;;5053495;28;20020;-68
2021/06/16 08:54:26;;;;;;;3.28;1.60;;;;;;;;;;5016916;28;20476;-69
2021/06/16 08:56:51;;;;;;;3.00;1.73;;;;;;;;;;5046353;28;20024;-69
2021/06/16 08:59:16;;;;;;;4.05;1.40;;;;;;;;;;5036256;28;20026;-69
2021/06/16 09:01:42;;;;;;;3.65;1.63;;;;;;;;;;5048716;28;20041;-72
2021/06/16 09:04:08;;;;;;;2.20;1.50;;;;;;;;;;5145830;23;20109;-69
2021/06/16 09:06:33;;;;;;;3.50;1.50;;;;;;;;;;5012405;28;20390;-67
2021/06/16 09:09:03;;;;;;;2.35;1.60;;;;;;;;;;5011590;28;20030;-67
2021/06/16 09:11:31;;;;;;;1.80;1.35;;;;;;;;;;5012197;28;20018;-68
2021/06/16 09:14:15;;;;;;;1.67;1.30;;;;;;;;;;4995036;28;20013;-69
2021/06/16 09:16:41;;;;;;;6.15;1.50;;;;;;;;;;4995122;28;20091;-68
2021/06/16 09:19:25;;;;;;;4.28;1.38;;;;;;;;;;5010821;28;20482;-69
2021/06/16 09:21:57;;;;;;;6.43;2.00;;;;;;;;;;4993612;28;20458;-68
2021/06/16 09:24:23;;;;;;;4.05;1.83;;;;;;;;;;5009632;28;20022;-66
2021/06/16 09:26:48;;;;;;;4.13;1.40;;;;;;;;;;5010777;28;20026;-69
2021/06/16 09:29:13;;;;;;;3.35;1.40;;;;;;;;;;5012349;28;20382;-66
2021/06/16 09:31:41;;;;;;;1.92;1.50;;;;;;;;;;5013103;28;20056;-67
2021/06/16 09:34:13;;;;;;;5.13;1.45;;;;;;;;;;5012126;28;20031;-66
2021/06/16 09:36:53;;;;;;;4.53;1.98;;;;;;;;;;5012019;28;20033;-68
2021/06/16 09:39:20;;;;;;;2.72;1.77;;;;;;;;;;4991288;28;20120;-68
2021/06/16 09:42:11;;;;;;;3.20;1.52;;;;;;;;;;4993590;28;20053;-69
2021/06/16 09:44:48;;;;;;;4.68;1.40;;;;;;;;;;5011249;28;20022;-70
2021/06/16 09:47:15;;;;;;;4.63;1.33;;;;;;;;;;5011914;28;20056;-66
2021/06/16 09:49:48;;;;;;;3.70;1.52;;;;;;;;;;5011813;28;20467;-66
2021/06/16 09:52:32;;;;;;;2.55;1.35;;;;;;;;;;5012019;28;20021;-69
2021/06/16 09:54:58;;;;;;;6.53;1.70;;;;;;;;;;5012151;28;20894;-70
2021/06/16 09:57:24;;;;;;;6.38;1.60;;;;;;;;;;5008510;28;20478;-70
2021/06/16 09:59:49;;;;;;;4.85;1.60;;;;;;;;;;5009550;28;20072;-69
2021/06/16 10:02:17;;;;;;;2.28;1.40;;;;;;;;;;5010256;28;20053;-68
2021/06/16 10:04:45;;;;;;;3.17;1.50;;;;;;;;;;5009671;28;20046;-69
2021/06/16 10:07:15;;;;;;;4.70;1.45;;;;;;;;;;5008769;28;20022;-70
2021/06/16 10:09:48;;;;;;;3.65;1.70;;;;;;;;;;5007214;28;20065;-70
2021/06/16 10:12:14;;;;;;;2.65;1.52;;;;;;;;;;5005888;28;20080;-68
2021/06/16 10:14:40;;;;;;;2.17;1.50;;;;;;;;;;5008322;28;20532;-67
2021/06/16 10:17:07;;;;;;;2.72;1.25;;;;;;;;;;5006250;28;20018;-67
2021/06/16 10:19:33;;;;;;;2.42;1.50;;;;;;;;;;5010590;28;20036;-67
2021/06/16 10:21:59;;;;;;;7.10;1.58;;;;;;;;;;5006132;28;20014;-66
2021/06/16 10:24:24;;;;;;;4.28;1.52;;;;;;;;;;5008940;28;20022;-64
2021/06/16 10:26:53;;;;;;;4.60;1.60;;;;;;;;;;5010734;28;20025;-65
2021/06/16 10:29:19;;;;;;;5.05;1.35;;;;;;;;;;5010593;28;20048;-64
2021/06/16 10:31:45;;;;;;;3.40;1.67;;;;;;;;;;5011211;28;20022;-64
2021/06/16 10:34:10;;;;;;;2.22;1.23;;;;;;;;;;5010463;28;20021;-65
2021/06/16 10:36:36;;;;;;;1.88;1.25;;;;;;;;;;5010850;28;20052;-65
2021/06/16 10:39:10;;;;;;;3.92;1.48;;;;;;;;;;5011303;28;20116;-64
2021/06/16 10:41:45;;;;;;;1.52;1.20;;;;;;;;;;5010403;28;20100;-64
2021/06/16 10:44:19;;;;;;;2.05;1.50;;;;;;;;;;5010566;28;20018;-64
2021/06/16 10:46:49;;;;;;;8.05;1.23;;;;;;;;;;4981357;28;20436;-64
2021/06/16 10:49:14;;;;;;;1.77;1.30;;;;;;;;;;5010154;28;20037;-65
2021/06/16 10:51:41;;;;;;;3.85;1.15;;;;;;;;;;5010293;28;20018;-64
2021/06/16 10:54:20;;;;;;;5.72;1.40;;;;;;;;;;4992286;28;20025;-64
2021/06/16 10:56:47;;;;;;;2.80;1.50;;;;;;;;;;5007358;28;20470;-64
2021/06/16 10:59:13;;;;;;;2.55;1.20;;;;;;;;;;5014395;28;20080;-66
2021/06/16 11:01:45;;;;;;;3.15;1.30;;;;;;;;;;5013425;28;20030;-67
2021/06/16 11:04:10;;;;;;;3.78;1.15;;;;;;;;;;5000326;28;20109;-64
2021/06/16 11:06:36;;;;;;;2.55;1.23;;;;;;;;;;5006393;28;20046;-65
2021/06/16 11:09:14;;;;;;;2.63;1.52;;;;;;;;;;5007103;28;20044;-66
2021/06/16 11:11:53;;;;;;;2.28;1.25;;;;;;;;;;4998293;28;20387;-65
2021/06/16 11:14:46;;;;;;;2.28;1.45;;;;;;;;;;5008715;28;20037;-64
2021/06/16 11:17:31;;;;;;;3.30;1.27;;;;;;;;;;5009357;28;20776;-65
2021/06/16 11:19:57;;;;;;;1.55;1.13;;;;;;;;;;4991768;28;20015;-65
2021/06/16 11:22:29;;;;;;;3.83;1.42;;;;;;;;;;5006534;28;20072;-64
2021/06/16 11:25:29;;;;;;;1.77;1.00;;;;;;;;;;5003358;28;20029;-65
2021/06/16 11:28:15;;;;;;;15.35;3.30;;;;;;;;;;5001702;28;20026;-64
2021/06/16 11:31:02;;;;;;;2.80;1.42;;;;;;;;;;5004300;28;20032;-65
2021/06/16 11:33:32;;;;;;;2.08;1.38;;;;;;;;;;5004017;28;20026;-64
2021/06/16 11:36:17;;;;;;;2.03;1.50;;;;;;;;;;5005304;28;20066;-65
2021/06/16 11:38:49;;;;;;;1.90;1.40;;;;;;;;;;5012254;28;20045;-65
2021/06/16 11:41:17;;;;;;;4.40;1.60;;;;;;;;;;5016600;28;20033;-67
2021/06/16 11:43:54;;;;;;;2.58;1.25;;;;;;;;;;4998413;28;20026;-67
2021/06/16 11:46:27;;;;;;;7.00;1.90;;;;;;;;;;5008252;28;20018;-65
2021/06/16 11:49:11;;;;;;;2.60;1.40;;;;;;;;;;5004967;28;20125;-66
2021/06/16 11:51:44;;;;;;;2.60;1.10;;;;;;;;;;4997980;28;20443;-68
2021/06/16 11:54:24;;;;;;;5.57;1.20;;;;;;;;;;4994282;28;20018;-72
2021/06/16 11:57:08;;;;;;;3.22;1.10;;;;;;;;;;5009252;28;20026;-70
2021/06/16 11:59:39;;;;;;;3.38;1.55;;;;;;;;;;5008376;28;20033;-70
2021/06/16 12:02:05;;;;;;;2.95;1.40;;;;;;;;;;5011831;28;20075;-70
2021/06/16 12:04:50;;;;;;;2.03;1.20;;;;;;;;;;5010279;28;20043;-70
2021/06/16 12:07:19;;;;;;;5.00;1.35;;;;;;;;;;5013027;28;20117;-71
2021/06/16 12:09:45;;;;;;;1.65;1.30;;;;;;;;;;4979531;28;20030;-71
2021/06/16 12:12:10;;;;;;;2.50;1.20;;;;;;;;;;5002435;28;20044;-70
2021/06/16 12:14:36;;;;;;;1.98;1.30;;;;;;;;;;5005346;28;20049;-69
2021/06/16 12:17:03;;;;;;;6.10;1.42;;;;;;;;;;5009421;28;20029;-71
2021/06/16 12:19:32;;;;;;;1.40;1.00;;;;;;;;;;4980314;28;20386;-70
2021/06/16 12:22:03;;;;;;;1.55;1.10;;;;;;;;;;4991580;28;20064;-70
2021/06/16 12:24:30;;;;;;;2.22;1.00;;;;;;;;;;5006857;28;20072;-69
2021/06/16 12:26:58;;;;;;;4.93;1.40;;;;;;;;;;4998211;28;20018;-68
2021/06/16 12:29:23;;;;;;;3.03;1.38;;;;;;;;;;4991787;28;20435;-69
2021/06/16 12:31:51;;;;;;;2.53;1.13;;;;;;;;;;4997060;28;20217;-68
2021/06/16 12:34:31;;;;;;;3.50;1.40;;;;;;;;;;5007233;28;20383;-71
2021/06/16 12:37:16;;;;;;;1.65;1.30;;;;;;;;;;5001453;28;20256;-68
2021/06/16 12:40:00;;;;;;;1.10;1.00;;;;;;;;;;4991478;28;20054;-68
2021/06/16 12:42:39;;;;;;;1.50;1.02;;;;;;;;;;5001125;28;20018;-68
2021/06/16 12:45:04;;;;;;;;;;;;;;;;;;4983137;28;20371;-69
2021/06/16 12:47:31;;;;;;;4.30;1.10;;;;;;;;;;5009544;28;19909;-68
2021/06/16 12:49:57;;;;;;;2.33;1.20;;;;;;;;;;4995721;28;20057;-68
2021/06/16 12:52:34;;;;;;;9.15;1.20;;;;;;;;;;5008787;28;20439;-66
2021/06/16 12:55:09;;;;;;;5.20;1.38;;;;;;;;;;5012846;28;20025;-65
2021/06/16 12:57:42;;;;;;;3.28;1.10;;;;;;;;;;5012337;28;20014;-66
2021/06/16 13:00:12;;;;;;;1.85;1.20;;;;;;;;;;4998050;28;20030;-65
2021/06/16 13:02:37;;;;;;;2.10;1.05;;;;;;;;;;5002070;28;20029;-68
2021/06/16 13:05:07;;;;;;;1.60;0.93;;;;;;;;;;5000097;28;20054;-70
2021/06/16 13:07:51;;;;;;;1.60;0.90;;;;;;;;;;4993086;28;20022;-67
2021/06/16 13:10:29;;;;;;;4.75;1.40;;;;;;;;;;5009843;28;20033;-67
2021/06/16 13:13:08;;;;;;;7.70;1.30;;;;;;;;;;5009641;28;20010;-66
2021/06/16 13:15:43;;;;;;;3.45;1.30;;;;;;;;;;5002782;28;20030;-67
2021/06/16 13:18:23;;;;;;;1.42;0.90;;;;;;;;;;4996593;28;20018;-67
2021/06/16 13:20:49;;;;;;;1.73;1.10;;;;;;;;;;4979557;28;20109;-67
2021/06/16 13:23:16;;;;;;;3.53;0.93;;;;;;;;;;4981580;28;20482;-67
2021/06/16 13:25:42;;;;;;;2.28;1.20;;;;;;;;;;5007948;28;20096;-67
2021/06/16 13:28:08;;;;;;;6.00;1.20;;;;;;;;;;5000050;28;20039;-67
2021/06/16 13:30:37;;;;;;;1.88;1.10;;;;;;;;;;4963441;28;20035;-66
2021/06/16 13:33:03;;;;;;;2.60;0.90;;;;;;;;;;4998978;28;20455;-66
2021/06/16 13:35:29;;;;;;;2.05;1.17;;;;;;;;;;5004000;28;20024;-67
2021/06/16 13:37:55;;;;;;;2.47;1.30;;;;;;;;;;5006630;28;20494;-65
2021/06/16 13:40:21;;;;;;;2.97;1.17;;;;;;;;;;5004253;28;20019;-65
2021/06/16 13:42:48;;;;;;;8.93;1.42;;;;;;;;;;5006426;28;20023;-66
2021/06/16 13:45:14;;;;;;;2.40;1.13;;;;;;;;;;4961854;28;20022;-65
2021/06/16 13:47:40;;;;;;;1.45;1.10;;;;;;;;;;5002020;28;20029;-66
2021/06/16 13:50:06;;;;;;;6.95;1.50;;;;;;;;;;5007656;28;20022;-65
2021/06/16 13:52:31;;;;;;;3.88;1.20;;;;;;;;;;4990479;28;20018;-66
2021/06/16 13:54:57;;;;;;;6.28;1.35;;;;;;;;;;4998850;28;20387;-66
2021/06/16 13:57:22;;;;;;;1.33;1.10;;;;;;;;;;4984266;28;20014;-66
2021/06/16 13:59:48;;;;;;;1.38;0.90;;;;;;;;;;5001522;28;20026;-66
2021/06/16 14:02:13;;;;;;;1.95;1.15;;;;;;;;;;4988133;28;20018;-66
2021/06/16 14:04:39;;;;;;;1.65;1.25;;;;;;;;;;5000839;28;20065;-66
2021/06/16 14:07:04;;;;;;;2.33;1.38;;;;;;;;;;4992268;28;20025;-66
2021/06/16 14:09:29;;;;;;;2.05;1.20;;;;;;;;;;4999961;28;20097;-65
2021/06/16 14:11:55;;;;;;;5.13;1.30;;;;;;;;;;5005909;28;20105;-67
2021/06/16 14:14:20;;;;;;;2.60;1.08;;;;;;;;;;5008121;28;20479;-66
2021/06/16 14:16:46;;;;;;;2.33;1.02;;;;;;;;;;5009393;28;20048;-67
2021/06/16 14:19:12;;;;;;;1.70;1.30;;;;;;;;;;4992034;28;20099;-67
2021/06/16 14:21:37;;;;;;;2.13;1.27;;;;;;;;;;5009478;28;20036;-67
2021/06/16 14:24:03;;;;;;;1.98;1.40;;;;;;;;;;4990631;28;20038;-66
2021/06/16 14:26:28;;;;;;;2.20;1.35;;;;;;;;;;4967443;28;20028;-68
2021/06/16 14:28:55;;;;;;;2.08;1.30;;;;;;;;;;4991725;28;20030;-67
2021/06/16 14:31:20;;;;;;;2.72;1.40;;;;;;;;;;5009119;28;20022;-66
2021/06/16 14:33:46;;;;;;;1.77;1.40;;;;;;;;;;4992290;28;20075;-66
2021/06/16 14:36:11;;;;;;;1.50;1.40;;;;;;;;;;5008197;28;20025;-66
2021/06/16 14:38:36;;;;;;;4.57;1.15;;;;;;;;;;5010409;28;20026;-66
2021/06/16 14:41:02;;;;;;;6.03;2.22;;;;;;;;;;5009584;28;20018;-66
2021/06/16 14:43:27;;;;;;;6.72;1.23;;;;;;;;;;5009352;28;20071;-65
2021/06/16 14:45:54;;;;;;;1.70;1.35;;;;;;;;;;5009782;28;20026;-66